createdAt,value
2022-10-13T00:01:10.765Z,12.60
2022-10-13T00:03:41.849Z,12.60
2022-10-13T00:06:11.749Z,12.60
2022-10-13T00:08:40.624Z,12.60
2022-10-13T00:11:13.210Z,12.60
2022-10-13T00:13:41.678Z,12.70
2022-10-13T00:16:10.135Z,12.60
2022-10-13T00:18:38.993Z,12.60
2022-10-13T00:21:11.182Z,12.60
2022-10-13T00:23:40.271Z,12.60
2022-10-13T00:26:10.268Z,12.60
2022-10-13T00:28:39.325Z,12.70
2022-10-13T00:31:16.941Z,12.70
2022-10-13T00:33:44.922Z,12.70
2022-10-13T00:36:14.389Z,12.60
2022-10-13T00:38:42.750Z,12.70
2022-10-13T00:41:10.955Z,12.60
2022-10-13T00:43:55.086Z,12.70
2022-10-13T00:46:24.898Z,12.70
2022-10-13T00:48:53.909Z,12.70
2022-10-13T00:51:27.649Z,12.70
2022-10-13T00:53:56.594Z,12.60
2022-10-13T00:56:26.567Z,12.70
2022-10-13T00:58:56.091Z,12.70
2022-10-13T01:01:24.104Z,12.70
2022-10-13T01:03:52.098Z,12.70
2022-10-13T01:06:23.990Z,12.70
2022-10-13T01:08:54.827Z,12.70
2022-10-13T01:11:36.825Z,12.80
2022-10-13T01:14:13.125Z,12.80
2022-10-13T01:16:50.004Z,12.80
2022-10-13T01:19:51.541Z,12.80
2022-10-13T01:22:29.703Z,12.80
2022-10-13T01:25:12.444Z,12.80
2022-10-13T01:28:00.905Z,12.80
2022-10-13T01:30:35.028Z,12.80
2022-10-13T01:33:15.016Z,12.80
2022-10-13T01:35:52.826Z,12.80
2022-10-13T01:38:30.859Z,12.80
2022-10-13T01:41:06.304Z,12.80
2022-10-13T01:43:38.313Z,12.80
2022-10-13T01:46:13.449Z,12.80
2022-10-13T01:48:44.230Z,12.90
2022-10-13T01:51:17.860Z,12.90
2022-10-13T01:53:48.149Z,12.90
2022-10-13T01:56:16.427Z,12.90
2022-10-13T01:58:45.829Z,12.90
2022-10-13T02:01:30.873Z,12.90
2022-10-13T02:04:11.707Z,13.00
2022-10-13T02:06:46.682Z,13.00
2022-10-13T02:09:22.053Z,13.00
2022-10-13T02:11:55.315Z,13.00
2022-10-13T02:14:27.385Z,13.00
2022-10-13T02:17:00.170Z,13.00
2022-10-13T02:19:29.998Z,13.00
2022-10-13T02:21:59.020Z,13.00
2022-10-13T02:24:27.307Z,13.00
2022-10-13T02:26:55.318Z,13.10
2022-10-13T02:29:23.377Z,13.10
2022-10-13T02:31:51.392Z,13.10
2022-10-13T02:34:20.872Z,13.10
2022-10-13T02:36:48.787Z,13.10
2022-10-13T02:39:17.872Z,13.10
2022-10-13T02:41:45.837Z,13.20
2022-10-13T02:44:13.699Z,13.20
2022-10-13T02:46:41.711Z,13.20
2022-10-13T02:49:11.492Z,13.20
2022-10-13T02:51:40.774Z,13.20
2022-10-13T02:54:09.529Z,13.20
2022-10-13T02:56:37.436Z,13.20
2022-10-13T02:59:05.682Z,13.20
2022-10-13T03:01:34.165Z,13.20
2022-10-13T03:04:02.033Z,13.20
2022-10-13T03:06:29.903Z,13.20
2022-10-13T03:08:59.349Z,13.20
2022-10-13T03:11:27.356Z,13.20
2022-10-13T03:13:55.276Z,13.20
2022-10-13T03:16:23.329Z,13.20
2022-10-13T03:18:51.277Z,13.20
2022-10-13T03:21:19.188Z,13.20
2022-10-13T03:23:47.177Z,13.20
2022-10-13T03:26:16.759Z,13.20
2022-10-13T03:28:44.786Z,13.20
2022-10-13T03:31:13.765Z,13.20
2022-10-13T03:33:41.779Z,13.20
2022-10-13T03:36:09.797Z,13.20
2022-10-13T03:38:37.995Z,13.20
2022-10-13T03:41:07.039Z,13.20
2022-10-13T03:43:36.573Z,13.20
2022-10-13T03:46:06.043Z,13.20
2022-10-13T03:48:36.269Z,13.20
2022-10-13T03:51:06.473Z,13.20
2022-10-13T03:53:34.691Z,13.20
2022-10-13T03:56:03.464Z,13.20
2022-10-13T03:58:31.644Z,13.20
2022-10-13T04:01:04.661Z,13.20
2022-10-13T04:03:33.221Z,13.30
2022-10-13T04:06:02.704Z,13.20
2022-10-13T04:08:30.970Z,13.20
2022-10-13T04:11:03.119Z,13.20
2022-10-13T04:13:31.175Z,13.30
2022-10-13T04:16:05.566Z,13.30
2022-10-13T04:18:34.260Z,13.30
2022-10-13T04:21:02.290Z,13.20
2022-10-13T04:23:30.158Z,13.20
2022-10-13T04:25:58.016Z,13.20
2022-10-13T04:28:26.132Z,13.30
2022-10-13T04:30:54.093Z,13.20
2022-10-13T04:33:23.579Z,13.30
2022-10-13T04:35:51.599Z,13.30
2022-10-13T04:38:19.488Z,13.30
2022-10-13T04:40:47.595Z,13.30
2022-10-13T04:43:15.882Z,13.30
2022-10-13T04:45:43.792Z,13.30
2022-10-13T04:48:11.749Z,13.30
2022-10-13T04:50:41.169Z,13.30
2022-10-13T04:53:09.133Z,13.30
2022-10-13T04:55:37.810Z,13.30
2022-10-13T04:58:05.834Z,13.30
2022-10-13T05:00:33.934Z,13.30
2022-10-13T05:03:02.197Z,13.30
2022-10-13T05:05:30.229Z,13.30
2022-10-13T05:07:59.993Z,13.30
2022-10-13T05:10:32.513Z,13.30
2022-10-13T05:13:02.684Z,13.30
2022-10-13T05:15:30.545Z,13.30
2022-10-13T05:17:59.668Z,13.30
2022-10-13T05:20:27.981Z,13.30
2022-10-13T05:22:55.844Z,13.30
2022-10-13T05:25:25.048Z,13.40
2022-10-13T05:27:53.051Z,13.30
2022-10-13T05:30:20.929Z,13.40
2022-10-13T05:32:53.010Z,13.40
2022-10-13T05:35:22.277Z,13.30
2022-10-13T05:37:50.126Z,13.40
2022-10-13T05:40:18.385Z,13.40
2022-10-13T05:42:47.847Z,13.40
2022-10-13T05:45:15.691Z,13.40
2022-10-13T05:47:43.961Z,13.40
2022-10-13T05:50:12.120Z,13.40
2022-10-13T05:52:40.406Z,13.40
2022-10-13T05:55:11.070Z,13.40
2022-10-13T05:57:42.725Z,13.50
2022-10-13T06:00:15.338Z,13.50
2022-10-13T06:02:48.018Z,13.50
2022-10-13T06:05:18.368Z,13.50
2022-10-13T06:07:48.060Z,13.50
2022-10-13T06:10:18.809Z,13.50
2022-10-13T06:12:47.025Z,13.50
2022-10-13T06:15:16.453Z,13.60
2022-10-13T06:17:44.699Z,13.60
2022-10-13T06:20:12.802Z,13.60
2022-10-13T06:22:40.728Z,13.60
2022-10-13T06:25:10.237Z,13.60
2022-10-13T06:27:38.116Z,13.60
2022-10-13T06:30:06.635Z,13.60
2022-10-13T06:32:35.956Z,13.70
2022-10-13T06:35:03.883Z,13.70
2022-10-13T06:37:31.867Z,13.70
2022-10-13T06:39:59.891Z,13.70
2022-10-13T06:42:30.911Z,13.70
2022-10-13T06:44:58.922Z,13.70
2022-10-13T06:47:27.659Z,13.70
2022-10-13T06:49:56.967Z,13.70
2022-10-13T06:52:24.900Z,13.70
2022-10-13T06:54:52.869Z,13.70
2022-10-13T06:57:20.775Z,13.70
2022-10-13T06:59:49.058Z,13.70
2022-10-13T07:02:17.253Z,13.70
2022-10-13T07:04:45.544Z,13.70
2022-10-13T07:07:15.176Z,13.80
2022-10-13T07:09:43.189Z,13.70
2022-10-13T07:12:11.082Z,13.70
2022-10-13T07:14:41.655Z,13.80
2022-10-13T07:17:11.798Z,13.80
2022-10-13T07:19:39.651Z,13.80
2022-10-13T07:22:07.561Z,13.80
2022-10-13T07:24:37.062Z,13.80
2022-10-13T07:27:07.830Z,13.90
2022-10-13T07:29:36.165Z,13.90
2022-10-13T07:32:04.225Z,13.90
2022-10-13T07:34:32.263Z,13.90
2022-10-13T07:37:00.156Z,13.90
2022-10-13T07:39:28.196Z,13.90
2022-10-13T07:41:57.624Z,13.90
2022-10-13T07:44:25.566Z,14.00
2022-10-13T07:46:53.414Z,14.00
2022-10-13T07:49:21.363Z,14.00
2022-10-13T07:51:49.207Z,14.00
2022-10-13T07:54:21.453Z,14.00
2022-10-13T07:56:53.213Z,14.00
2022-10-13T07:59:22.936Z,14.10
2022-10-13T08:01:50.912Z,14.10
2022-10-13T08:04:18.888Z,14.00
2022-10-13T08:06:46.848Z,14.10
2022-10-13T08:09:14.781Z,14.10
2022-10-13T08:11:42.648Z,14.10
2022-10-13T08:14:13.276Z,14.20
2022-10-13T08:16:48.717Z,14.20
2022-10-13T08:19:20.277Z,14.20
2022-10-13T08:22:07.705Z,14.20
2022-10-13T08:24:36.140Z,14.20
2022-10-13T08:27:04.129Z,14.20
2022-10-13T08:29:32.154Z,14.30
2022-10-13T08:32:01.949Z,14.30
2022-10-13T08:34:29.891Z,14.30
2022-10-13T08:36:59.779Z,14.30
2022-10-13T08:39:27.774Z,14.30
2022-10-13T08:41:57.841Z,14.30
2022-10-13T08:47:36.620Z,14.30
2022-10-13T08:50:08.225Z,14.40
2022-10-13T08:52:47.486Z,14.40
2022-10-13T08:55:24.293Z,14.40
2022-10-13T08:57:52.541Z,14.50
2022-10-13T09:00:20.551Z,14.50
2022-10-13T09:02:50.919Z,14.60
2022-10-13T09:05:32.464Z,14.60
2022-10-13T09:08:01.100Z,14.70
2022-10-13T09:10:29.033Z,14.70
2022-10-13T09:12:58.779Z,14.80
2022-10-13T09:15:26.826Z,14.80
2022-10-13T09:18:12.017Z,14.80
2022-10-13T09:20:40.719Z,14.90
2022-10-13T09:23:20.609Z,14.90
2022-10-13T09:25:50.527Z,15.00
2022-10-13T09:28:23.574Z,15.00
2022-10-13T09:31:02.774Z,15.00
2022-10-13T09:33:36.503Z,15.00
2022-10-13T09:36:12.184Z,15.10
2022-10-13T09:38:41.604Z,15.10
2022-10-13T09:41:17.121Z,15.20
2022-10-13T09:43:59.503Z,15.30
2022-10-13T09:46:30.832Z,15.40
2022-10-13T09:49:03.789Z,15.40
2022-10-13T09:51:36.191Z,15.50
2022-10-13T09:54:04.438Z,15.60
2022-10-13T09:56:38.141Z,15.60
2022-10-13T09:59:15.478Z,15.70
2022-10-13T10:01:46.619Z,15.80
2022-10-13T10:04:20.294Z,15.80
2022-10-13T10:06:48.409Z,15.90
2022-10-13T10:09:33.189Z,15.90
2022-10-13T10:12:02.877Z,16.00
2022-10-13T10:14:34.020Z,16.00
2022-10-13T10:17:08.684Z,16.00
2022-10-13T10:19:50.424Z,16.00
2022-10-13T10:22:31.457Z,16.10
2022-10-13T10:25:06.639Z,16.10
2022-10-13T10:27:43.598Z,16.10
2022-10-13T10:30:17.798Z,16.10
2022-10-13T10:32:54.558Z,16.10
2022-10-13T10:35:38.549Z,16.10
2022-10-13T10:38:17.578Z,16.10
2022-10-13T10:40:51.680Z,16.10
2022-10-13T10:43:37.897Z,16.10
2022-10-13T10:46:15.936Z,16.20
2022-10-13T10:48:46.891Z,16.20
2022-10-13T10:51:16.538Z,16.20
2022-10-13T10:53:57.411Z,16.20
2022-10-13T10:56:33.556Z,16.30
2022-10-13T10:59:16.795Z,16.30
2022-10-13T11:01:50.281Z,16.30
2022-10-13T11:04:36.532Z,16.40
2022-10-13T11:07:10.753Z,16.40
2022-10-13T11:09:57.490Z,16.30
2022-10-13T11:12:26.004Z,16.30
2022-10-13T11:15:09.698Z,16.20
2022-10-13T11:17:39.431Z,16.20
2022-10-13T11:20:50.585Z,16.20
2022-10-13T11:23:35.792Z,16.20
2022-10-13T11:26:31.905Z,16.10
2022-10-13T11:29:00.737Z,16.10
2022-10-13T11:31:49.720Z,16.00
2022-10-13T11:34:31.516Z,15.90
2022-10-13T11:37:02.174Z,15.90
2022-10-13T11:39:59.638Z,15.80
2022-10-13T11:42:59.249Z,15.70
2022-10-13T11:45:38.599Z,15.70
2022-10-13T11:48:31.390Z,15.60
2022-10-13T11:51:12.622Z,15.60
2022-10-13T11:53:51.762Z,15.50
2022-10-13T11:56:22.809Z,15.50
2022-10-13T11:58:50.934Z,15.50
2022-10-13T12:01:20.232Z,15.50
2022-10-13T12:03:48.937Z,15.50
2022-10-13T12:06:33.363Z,15.50
2022-10-13T12:09:05.173Z,15.50
2022-10-13T12:11:37.944Z,15.40
2022-10-13T12:14:09.771Z,15.40
2022-10-13T12:16:37.682Z,15.40
2022-10-13T12:19:11.253Z,15.40
2022-10-13T12:21:50.399Z,15.40
2022-10-13T12:24:18.329Z,15.40
2022-10-13T12:26:47.675Z,15.40
2022-10-13T12:29:17.289Z,15.40
2022-10-13T12:31:47.272Z,15.40
2022-10-13T12:34:21.350Z,15.40
2022-10-13T12:36:59.282Z,15.40
2022-10-13T12:39:29.153Z,15.40
2022-10-13T12:41:59.495Z,15.40
2022-10-13T12:44:30.267Z,15.40
2022-10-13T12:46:59.992Z,15.40
2022-10-13T12:49:29.643Z,15.40
2022-10-13T12:52:04.905Z,15.30
2022-10-13T12:54:36.112Z,15.40
2022-10-13T12:57:17.001Z,15.30
2022-10-13T12:59:45.135Z,15.30
2022-10-13T13:02:21.600Z,15.30
2022-10-13T13:04:49.641Z,15.30
2022-10-13T13:07:29.732Z,15.30
2022-10-13T13:10:15.828Z,15.30
2022-10-13T13:12:45.993Z,15.30
2022-10-13T13:15:31.724Z,15.20
2022-10-13T13:18:29.945Z,15.20
2022-10-13T13:20:58.230Z,15.20
2022-10-13T13:23:33.392Z,15.20
2022-10-13T13:26:03.246Z,15.20
2022-10-13T13:28:33.475Z,15.20
2022-10-13T13:31:01.566Z,15.20
2022-10-13T13:33:29.493Z,15.20
2022-10-13T13:35:57.747Z,15.20
2022-10-13T13:38:25.636Z,15.30
2022-10-13T13:40:53.503Z,15.30
2022-10-13T13:43:21.415Z,15.30
2022-10-13T13:45:50.804Z,15.30
2022-10-13T13:48:18.639Z,15.30
2022-10-13T13:50:46.534Z,15.30
2022-10-13T13:53:14.495Z,15.30
2022-10-13T13:55:45.182Z,15.40
2022-10-13T13:58:13.043Z,15.40
2022-10-13T14:00:41.173Z,15.50
2022-10-13T14:03:10.562Z,15.50
2022-10-13T14:05:39.890Z,15.50
2022-10-13T14:08:08.591Z,15.60
2022-10-13T14:10:36.989Z,15.60
2022-10-13T14:13:04.881Z,15.70
2022-10-13T14:15:32.829Z,15.60
2022-10-13T14:18:00.721Z,15.70
2022-10-13T14:20:30.128Z,15.70
2022-10-13T14:22:58.021Z,15.80
2022-10-13T14:25:26.030Z,15.80
2022-10-13T14:27:53.964Z,15.90
2022-10-13T14:30:22.075Z,15.90
2022-10-13T14:32:49.997Z,16.00
2022-10-13T14:35:17.988Z,16.10
2022-10-13T14:37:47.442Z,16.10
2022-10-13T14:40:15.380Z,16.10
2022-10-13T14:42:43.465Z,16.10
2022-10-13T14:45:13.097Z,16.10
2022-10-13T14:47:41.031Z,16.10
2022-10-13T14:50:09.704Z,16.20
2022-10-13T14:52:37.671Z,16.20
2022-10-13T14:55:07.627Z,16.20
2022-10-13T14:57:35.611Z,16.30
2022-10-13T15:00:03.836Z,16.40
2022-10-13T15:02:32.137Z,16.30
2022-10-13T15:05:00.413Z,16.30
2022-10-13T15:07:28.384Z,16.40
2022-10-13T15:10:11.747Z,16.30
2022-10-13T15:12:41.127Z,16.30
2022-10-13T15:15:10.074Z,16.30
2022-10-13T15:17:38.116Z,16.20
2022-10-13T15:20:07.364Z,16.20
2022-10-13T15:22:35.376Z,16.20
2022-10-13T15:25:04.466Z,16.20
2022-10-13T15:27:32.366Z,16.10
2022-10-13T15:30:01.823Z,16.10
2022-10-13T15:32:30.343Z,16.00
2022-10-13T15:34:58.293Z,16.00
2022-10-13T15:37:26.260Z,16.00
2022-10-13T15:39:57.432Z,16.00
2022-10-13T15:42:25.978Z,16.00
2022-10-13T15:45:12.542Z,15.90
2022-10-13T15:47:42.036Z,15.90
2022-10-13T15:50:10.438Z,15.90
2022-10-13T15:52:42.088Z,15.90
2022-10-13T15:55:11.075Z,15.90
2022-10-13T15:57:39.542Z,15.80
2022-10-13T16:00:09.589Z,15.80
2022-10-13T16:02:37.546Z,15.80
2022-10-13T16:05:08.362Z,15.80
2022-10-13T16:07:36.514Z,15.80
2022-10-13T16:10:04.776Z,15.70
2022-10-13T16:12:32.641Z,15.70
2022-10-13T16:15:00.592Z,15.70
2022-10-13T16:17:28.917Z,15.70
2022-10-13T16:19:56.796Z,15.60
2022-10-13T16:22:26.137Z,15.60
2022-10-13T16:24:54.137Z,15.60
2022-10-13T16:27:22.184Z,15.60
2022-10-13T16:29:50.166Z,15.60
2022-10-13T16:32:18.354Z,15.60
2022-10-13T16:34:48.607Z,15.50
2022-10-13T16:37:16.511Z,15.50
2022-10-13T16:39:51.203Z,15.50
2022-10-13T16:42:19.812Z,15.50
2022-10-13T16:44:48.003Z,15.50
2022-10-13T16:47:18.366Z,15.40
2022-10-13T16:49:46.965Z,15.50
2022-10-13T16:52:14.955Z,15.50
2022-10-13T16:54:42.954Z,15.40
2022-10-13T16:57:12.330Z,15.40
2022-10-13T16:59:40.348Z,15.40
2022-10-13T17:02:11.437Z,15.40
2022-10-13T17:04:39.360Z,15.40
2022-10-13T17:07:07.441Z,15.40
2022-10-13T17:09:35.382Z,15.30
2022-10-13T17:12:03.777Z,15.30
2022-10-13T17:14:33.108Z,15.30
2022-10-13T17:17:01.084Z,15.30
2022-10-13T17:19:29.478Z,15.30
2022-10-13T17:21:57.363Z,15.30
2022-10-13T17:24:25.244Z,15.30
2022-10-13T17:26:53.596Z,15.30
2022-10-13T17:29:21.546Z,15.30
2022-10-13T17:31:50.801Z,15.30
2022-10-13T17:34:19.465Z,15.30
2022-10-13T17:36:47.454Z,15.30
2022-10-13T17:39:17.598Z,15.30
2022-10-13T17:41:45.488Z,15.30
2022-10-13T17:44:13.332Z,15.30
2022-10-13T17:46:41.195Z,15.30
2022-10-13T17:49:12.569Z,15.20
2022-10-13T17:51:41.445Z,15.20
2022-10-13T17:54:15.279Z,15.20
2022-10-13T17:56:44.206Z,15.30
2022-10-13T17:59:12.644Z,15.30
2022-10-13T18:01:41.958Z,15.30
2022-10-13T18:04:14.064Z,15.30
2022-10-13T18:06:44.058Z,15.20
2022-10-13T18:09:14.029Z,15.20
2022-10-13T18:11:49.476Z,15.20
2022-10-13T18:14:18.393Z,15.30
2022-10-13T18:16:46.823Z,15.20
2022-10-13T18:19:16.184Z,15.20
2022-10-13T18:21:44.094Z,15.30
2022-10-13T18:24:12.465Z,15.20
2022-10-13T18:26:40.826Z,15.20
2022-10-13T18:29:10.172Z,15.20
2022-10-13T18:31:40.068Z,15.20
2022-10-13T18:34:09.700Z,15.20
2022-10-13T18:36:40.958Z,15.20
2022-10-13T18:39:12.108Z,15.20
2022-10-13T18:41:40.988Z,15.20
2022-10-13T18:44:10.077Z,15.10
2022-10-13T18:46:39.364Z,15.10
2022-10-13T18:49:08.902Z,15.10
2022-10-13T18:51:38.178Z,15.10
2022-10-13T18:54:07.329Z,15.10
2022-10-13T18:56:37.143Z,15.00
2022-10-13T18:59:07.848Z,15.00
2022-10-13T19:01:37.418Z,15.00
2022-10-13T19:04:06.447Z,15.00
2022-10-13T19:06:35.486Z,15.00
2022-10-13T19:09:07.149Z,15.00
2022-10-13T19:11:36.212Z,14.90
2022-10-13T19:14:05.603Z,14.90
2022-10-13T19:16:38.114Z,14.90
2022-10-13T19:19:07.966Z,14.90
2022-10-13T19:21:36.298Z,14.90
2022-10-13T19:24:06.176Z,14.90
2022-10-13T19:26:36.133Z,14.90
2022-10-13T19:29:06.436Z,14.90
2022-10-13T19:31:35.407Z,14.90
2022-10-13T19:34:03.597Z,14.80
2022-10-13T19:36:33.561Z,14.80
2022-10-13T19:39:02.758Z,14.80
2022-10-13T19:41:33.073Z,14.80
2022-10-13T19:44:02.001Z,14.70
2022-10-13T19:49:26.191Z,14.70
2022-10-13T19:51:54.878Z,14.60
2022-10-13T19:54:24.059Z,14.60
2022-10-13T19:56:53.896Z,14.60
2022-10-13T19:59:21.954Z,14.50
2022-10-13T20:01:50.033Z,14.50
2022-10-13T20:04:20.611Z,14.50
2022-10-13T20:06:48.764Z,14.40
2022-10-13T20:09:17.007Z,14.40
2022-10-13T20:11:46.665Z,14.30
2022-10-13T20:14:17.512Z,14.30
2022-10-13T20:16:45.804Z,14.30
2022-10-13T20:19:16.220Z,14.30
2022-10-13T20:21:44.415Z,14.30
2022-10-13T20:24:13.043Z,14.20
2022-10-13T20:26:42.628Z,14.20
2022-10-13T20:29:10.812Z,14.20
2022-10-13T20:31:40.391Z,14.20
2022-10-13T20:37:35.032Z,14.20
2022-10-13T20:40:03.004Z,14.10
2022-10-13T20:42:31.075Z,14.00
2022-10-13T20:44:59.247Z,14.00
2022-10-13T20:47:28.623Z,14.00
2022-10-13T20:49:58.474Z,14.00
2022-10-13T20:52:26.454Z,14.00
2022-10-13T20:54:55.852Z,14.00
2022-10-13T20:57:25.102Z,14.00
2022-10-13T20:59:53.140Z,14.00
2022-10-13T21:02:21.946Z,14.00
2022-10-13T21:04:51.385Z,14.00
2022-10-13T21:07:21.732Z,14.00
2022-10-13T21:09:53.625Z,14.00
2022-10-13T21:12:22.410Z,13.90
2022-10-13T21:14:50.312Z,13.90
2022-10-13T21:17:20.925Z,13.90
2022-10-13T21:19:49.521Z,13.90
2022-10-13T21:22:19.265Z,13.90
2022-10-13T21:24:47.285Z,13.80
2022-10-13T21:27:15.657Z,13.80
2022-10-13T21:29:43.671Z,13.80
2022-10-13T21:32:12.081Z,13.80
2022-10-13T21:34:40.066Z,13.80
2022-10-13T21:37:08.267Z,13.80
2022-10-13T21:39:38.080Z,13.70
2022-10-13T21:42:06.122Z,13.80
2022-10-13T21:44:34.132Z,13.80
2022-10-13T21:47:02.585Z,13.80
2022-10-13T21:49:30.441Z,13.80
2022-10-13T21:51:58.843Z,13.70
2022-10-13T21:54:26.840Z,13.70
2022-10-13T21:56:56.120Z,13.80
2022-10-13T21:59:24.118Z,13.80
2022-10-13T22:01:52.151Z,13.80
2022-10-13T22:04:20.057Z,13.80
2022-10-13T22:06:47.962Z,13.80
2022-10-13T22:09:16.171Z,13.70
2022-10-13T22:11:44.748Z,13.70
2022-10-13T22:14:14.314Z,13.70
2022-10-13T22:16:44.032Z,13.70
2022-10-13T22:19:12.336Z,13.80
2022-10-13T22:21:44.589Z,13.70
2022-10-13T22:24:14.334Z,13.80
2022-10-13T22:26:43.864Z,13.80
2022-10-13T22:29:16.306Z,13.80
2022-10-13T22:31:44.491Z,13.80
2022-10-13T22:34:13.794Z,13.80
2022-10-13T22:36:45.091Z,13.80
2022-10-13T22:39:13.817Z,13.80
2022-10-13T22:41:41.905Z,13.80
2022-10-13T22:44:09.978Z,13.80
2022-10-13T22:46:40.452Z,13.80
2022-10-13T22:49:09.232Z,13.80
2022-10-13T22:51:37.962Z,13.80
2022-10-13T22:54:06.517Z,13.80
2022-10-13T22:56:35.572Z,13.80
2022-10-13T22:59:05.716Z,13.70
2022-10-13T23:01:33.922Z,13.70
2022-10-13T23:04:03.328Z,13.70
2022-10-13T23:06:33.236Z,13.70
2022-10-13T23:09:02.647Z,13.70
2022-10-13T23:11:30.844Z,13.70
2022-10-13T23:13:58.717Z,13.70
2022-10-13T23:16:28.089Z,13.70
2022-10-13T23:18:56.299Z,13.80
2022-10-13T23:21:27.492Z,13.70
2022-10-13T23:23:56.802Z,13.70
2022-10-13T23:26:25.262Z,13.70
2022-10-13T23:28:54.214Z,13.70
2022-10-13T23:31:22.284Z,13.70
2022-10-13T23:33:50.448Z,13.70
2022-10-13T23:36:20.915Z,13.70
2022-10-13T23:38:54.648Z,13.70
2022-10-13T23:41:22.756Z,13.70
2022-10-13T23:43:50.707Z,13.70
2022-10-13T23:46:18.890Z,13.60
2022-10-13T23:48:47.631Z,13.50
2022-10-13T23:51:18.455Z,13.50
2022-10-13T23:53:46.826Z,13.60
2022-10-13T23:56:16.601Z,13.50
2022-10-13T23:58:45.910Z,13.60
